Venice, FL (34285)

3:35 PM EDT on August 18, 2019 (GMT -0400)
Venice High School | | Change Station
Active Advisory: Flood Warning

Elev 20 ft 27.09 °N, 82.44 °W | Updated 5 seconds ago

Clear
Clear
89.4 °F
Feels Like 101 °F
N
0
Wind Variable Wind from SW
Gusts 0.0 mph

Today
High -- | Low -- °F
--% Chance of Precip.
Yesterday
High -- | Low -- °F
Precip. -- in
Pressure 30.07 in
Visibility 10.0 miles
Clouds Clear
Heat Index 101 °F
Dew Point 76 °F
Humidity 65%
Rainfall 0.05 in
Snow Depth Not available.
7:02 AM 8:04 PM
Waning Gibbous, 90% visible
METAR KVNC 181915Z AUTO 21009KT 10SM CLR 33/25 A3007 RMK AO2
Pressure 30.07 in
Visibility 10.0 miles
Clouds Clear
Heat Index 101 °F
Dew Point 76 °F
Humidity 65%
Rainfall 0.05 in
Snow Depth Not available.
7:02 AM 8:04 PM
Waning Gibbous, 90% visible
METAR KVNC 181915Z AUTO 21009KT 10SM CLR 33/25 A3007 RMK AO2

Get Your Daily Forecast Email!

Thanks for signing up!

Be on the lookout for a verification email in your inbox.

You'll start receiving severe weather alerts in your inbox..

×

10-Day Weather Forecast

Almanac

Astronomy

Aug. 18, 2019 Rise Set
Actual Time
Civil Twilight
Nautical Twilight
Astronomical Twilight
Moon
Length of Visible Light
Length of Day
Tomorrow will be .
, % of the Moon is Illuminated

Today's Extremes

State Highs State Lows

Community

WunderPhotos

Category 6

Welcome to Category 6. This is the collective home for Weather Underground's featured writeups by Dr. Jeff Masters (right), Bob Henson (left), Chris Burt, and other regular contributors.

Nearby

Air Quality

  Air Quality AQ Index Pollutant
Not available.

Snow Depth

Station Depth Elevation

Earthquake Activity

City Distance Mag. Time & Date
Minimum magnitude displayed is 2.5.

Coastal Water Temperatures

Place Temperature

Stations

Nearby Weather Stations

Station Location Temp. Windchill Dew Point Humidity Wind Precip. Elev Updated Type
                   

Watches & Warnings

Flood Warning
Issued: 9:48 AM EDT Aug. 18, 2019 – National Weather Service

The Flood Warning continues for
the Myakka River at Myakka River State Park
* until further notice.
* At 9 am Sunday the stage was 7.9 feet.
* Minor flooding is occurring and minor flooding is forecast.
* Flood stage is 7.0 feet.
* The river will continue rising to near 8.1 feet by early Tuesday
morning then begin falling.
* Impact... at 8.5 feet... most of Myakka State Park is closed.
* Impact... at 8.0 feet... the main Road at Myakka State Park floods.
* Impact... at 7.0 feet... trails, picnic areas, and parking lots at
Myakka State Park flood.
* Flood history... this compares to a previous crest of 8.1 feet
on Aug 18 1971.



               Fld observed forecast 8am
location stg stg day time Mon Tue Wed Thu Fri

Myakka
Myakka rive 7.0 7.9 sun 09 am 8.1 8.1 7.9 7.7 7.5




Lat... Lon 2726 8226 2715 8234 2715 8238 2731 8226